sensor_id;sensor_type;location;lat;lon;timestamp;P1;durP1;ratioP1;P2;durP2;ratioP2
22425;SDS011;11380;50.822;15.790;2022-12-20T00:01:22;42.58;;;39.03;;
22425;SDS011;11380;50.822;15.790;2022-12-20T00:06:32;38.13;;;35.83;;
22425;SDS011;11380;50.822;15.790;2022-12-20T00:11:39;39.13;;;36.67;;
22425;SDS011;11380;50.822;15.790;2022-12-20T00:16:46;42.60;;;39.48;;
22425;SDS011;11380;50.822;15.790;2022-12-20T00:21:52;41.37;;;38.57;;
22425;SDS011;11380;50.822;15.790;2022-12-20T00:26:59;46.15;;;41.98;;
22425;SDS011;11380;50.822;15.790;2022-12-20T00:37:12;43.70;;;40.28;;
22425;SDS011;11380;50.822;15.790;2022-12-20T00:42:19;43.87;;;40.38;;
22425;SDS011;11380;50.822;15.790;2022-12-20T00:47:26;46.13;;;41.98;;
22425;SDS011;11380;50.822;15.790;2022-12-20T00:52:33;42.70;;;39.20;;
22425;SDS011;11380;50.822;15.790;2022-12-20T00:57:40;43.83;;;40.25;;
22425;SDS011;11380;50.822;15.790;2022-12-20T01:02:46;44.48;;;41.08;;
22425;SDS011;11380;50.822;15.790;2022-12-20T01:07:53;42.60;;;39.33;;
22425;SDS011;11380;50.822;15.790;2022-12-20T01:13:00;43.42;;;40.05;;
22425;SDS011;11380;50.822;15.790;2022-12-20T01:23:13;42.40;;;39.07;;
22425;SDS011;11380;50.822;15.790;2022-12-20T01:28:20;44.73;;;40.75;;
22425;SDS011;11380;50.822;15.790;2022-12-20T01:33:26;46.37;;;42.23;;
22425;SDS011;11380;50.822;15.790;2022-12-20T01:38:33;52.33;;;46.83;;
22425;SDS011;11380;50.822;15.790;2022-12-20T01:43:48;51.43;;;46.20;;
22425;SDS011;11380;50.822;15.790;2022-12-20T01:49:01;50.33;;;45.23;;
22425;SDS011;11380;50.822;15.790;2022-12-20T01:54:11;50.47;;;45.40;;
22425;SDS011;11380;50.822;15.790;2022-12-20T01:59:21;46.00;;;41.85;;
22425;SDS011;11380;50.822;15.790;2022-12-20T02:04:29;45.17;;;41.25;;
22425;SDS011;11380;50.822;15.790;2022-12-20T02:09:35;42.07;;;38.47;;
22425;SDS011;11380;50.822;15.790;2022-12-20T02:31:17;48.73;;;44.10;;
22425;SDS011;11380;50.822;15.790;2022-12-20T02:36:27;44.60;;;40.77;;
22425;SDS011;11380;50.822;15.790;2022-12-20T02:41:39;46.33;;;42.23;;
22425;SDS011;11380;50.822;15.790;2022-12-20T02:46:45;47.77;;;42.77;;
22425;SDS011;11380;50.822;15.790;2022-12-20T02:51:53;47.00;;;42.13;;
22425;SDS011;11380;50.822;15.790;2022-12-20T02:57:07;48.27;;;43.60;;
22425;SDS011;11380;50.822;15.790;2022-12-20T03:02:21;45.30;;;41.07;;
22425;SDS011;11380;50.822;15.790;2022-12-20T03:07:30;45.30;;;41.20;;
22425;SDS011;11380;50.822;15.790;2022-12-20T03:12:38;45.05;;;40.78;;
22425;SDS011;11380;50.822;15.790;2022-12-20T03:22:51;45.27;;;41.37;;
22425;SDS011;11380;50.822;15.790;2022-12-20T03:27:57;43.87;;;40.28;;
22425;SDS011;11380;50.822;15.790;2022-12-20T03:33:04;41.73;;;38.13;;
22425;SDS011;11380;50.822;15.790;2022-12-20T03:38:10;45.23;;;40.67;;
22425;SDS011;11380;50.822;15.790;2022-12-20T03:43:17;47.45;;;42.90;;
22425;SDS011;11380;50.822;15.790;2022-12-20T03:48:23;44.47;;;40.47;;
22425;SDS011;11380;50.822;15.790;2022-12-20T03:53:30;43.20;;;39.60;;
22425;SDS011;11380;50.822;15.790;2022-12-20T04:03:42;42.80;;;39.10;;
22425;SDS011;11380;50.822;15.790;2022-12-20T04:08:50;44.33;;;40.37;;
22425;SDS011;11380;50.822;15.790;2022-12-20T04:13:57;43.50;;;39.43;;
22425;SDS011;11380;50.822;15.790;2022-12-20T04:19:03;44.17;;;40.50;;
22425;SDS011;11380;50.822;15.790;2022-12-20T04:24:09;42.33;;;38.60;;
22425;SDS011;11380;50.822;15.790;2022-12-20T04:29:17;41.20;;;37.76;;
22425;SDS011;11380;50.822;15.790;2022-12-20T04:34:23;44.63;;;40.63;;
22425;SDS011;11380;50.822;15.790;2022-12-20T04:39:30;41.35;;;38.05;;
22425;SDS011;11380;50.822;15.790;2022-12-20T04:49:42;40.77;;;37.50;;
22425;SDS011;11380;50.822;15.790;2022-12-20T04:59:54;38.50;;;35.93;;
22425;SDS011;11380;50.822;15.790;2022-12-20T05:05:01;40.67;;;37.65;;
22425;SDS011;11380;50.822;15.790;2022-12-20T05:10:08;41.40;;;38.25;;
22425;SDS011;11380;50.822;15.790;2022-12-20T05:15:15;41.37;;;38.13;;
22425;SDS011;11380;50.822;15.790;2022-12-20T05:20:22;42.55;;;39.40;;
22425;SDS011;11380;50.822;15.790;2022-12-20T05:25:30;41.37;;;38.17;;
22425;SDS011;11380;50.822;15.790;2022-12-20T05:30:55;51.30;;;46.13;;
22425;SDS011;11380;50.822;15.790;2022-12-20T05:36:01;47.62;;;43.35;;
22425;SDS011;11380;50.822;15.790;2022-12-20T05:41:08;58.00;;;49.63;;
22425;SDS011;11380;50.822;15.790;2022-12-20T05:46:15;48.78;;;44.27;;
22425;SDS011;11380;50.822;15.790;2022-12-20T05:51:22;50.03;;;45.20;;
22425;SDS011;11380;50.822;15.790;2022-12-20T05:56:30;40.60;;;37.67;;
22425;SDS011;11380;50.822;15.790;2022-12-20T06:01:36;43.02;;;39.20;;
22425;SDS011;11380;50.822;15.790;2022-12-20T06:11:48;40.43;;;37.63;;
22425;SDS011;11380;50.822;15.790;2022-12-20T06:16:56;43.17;;;39.65;;
22425;SDS011;11380;50.822;15.790;2022-12-20T06:22:03;40.10;;;37.28;;
22425;SDS011;11380;50.822;15.790;2022-12-20T06:27:09;40.27;;;37.67;;
22425;SDS011;11380;50.822;15.790;2022-12-20T06:32:16;40.95;;;38.05;;
22425;SDS011;11380;50.822;15.790;2022-12-20T06:37:23;42.80;;;39.50;;
22425;SDS011;11380;50.822;15.790;2022-12-20T06:42:30;39.88;;;37.03;;
22425;SDS011;11380;50.822;15.790;2022-12-20T06:47:37;39.60;;;36.80;;
22425;SDS011;11380;50.822;15.790;2022-12-20T06:52:45;40.93;;;37.97;;
22425;SDS011;11380;50.822;15.790;2022-12-20T06:57:52;40.60;;;37.25;;
22425;SDS011;11380;50.822;15.790;2022-12-20T07:02:59;42.90;;;39.67;;
22425;SDS011;11380;50.822;15.790;2022-12-20T07:08:06;43.43;;;39.93;;
22425;SDS011;11380;50.822;15.790;2022-12-20T07:13:13;38.67;;;36.10;;
22425;SDS011;11380;50.822;15.790;2022-12-20T07:18:20;43.67;;;39.97;;
22425;SDS011;11380;50.822;15.790;2022-12-20T07:23:29;38.80;;;36.33;;
22425;SDS011;11380;50.822;15.790;2022-12-20T07:28:36;39.27;;;36.87;;
22425;SDS011;11380;50.822;15.790;2022-12-20T07:33:42;41.23;;;38.38;;
22425;SDS011;11380;50.822;15.790;2022-12-20T07:43:54;45.33;;;41.57;;
22425;SDS011;11380;50.822;15.790;2022-12-20T07:49:02;41.77;;;38.43;;
22425;SDS011;11380;50.822;15.790;2022-12-20T07:54:10;45.03;;;40.88;;
22425;SDS011;11380;50.822;15.790;2022-12-20T07:59:27;42.80;;;39.50;;
22425;SDS011;11380;50.822;15.790;2022-12-20T08:04:36;41.90;;;38.90;;
22425;SDS011;11380;50.822;15.790;2022-12-20T08:09:43;41.90;;;38.93;;
22425;SDS011;11380;50.822;15.790;2022-12-20T08:14:52;43.33;;;39.70;;
22425;SDS011;11380;50.822;15.790;2022-12-20T08:19:59;51.83;;;46.57;;
22425;SDS011;11380;50.822;15.790;2022-12-20T08:25:07;55.43;;;49.37;;
22425;SDS011;11380;50.822;15.790;2022-12-20T08:30:14;53.90;;;48.27;;
22425;SDS011;11380;50.822;15.790;2022-12-20T08:35:21;49.67;;;44.98;;
22425;SDS011;11380;50.822;15.790;2022-12-20T08:40:28;44.40;;;40.83;;
22425;SDS011;11380;50.822;15.790;2022-12-20T08:45:35;50.23;;;45.45;;
22425;SDS011;11380;50.822;15.790;2022-12-20T08:50:41;41.35;;;38.55;;
22425;SDS011;11380;50.822;15.790;2022-12-20T08:55:48;41.73;;;38.87;;
22425;SDS011;11380;50.822;15.790;2022-12-20T09:01:02;43.07;;;39.87;;
22425;SDS011;11380;50.822;15.790;2022-12-20T09:06:07;41.07;;;38.23;;
22425;SDS011;11380;50.822;15.790;2022-12-20T09:11:18;42.70;;;39.53;;
22425;SDS011;11380;50.822;15.790;2022-12-20T09:16:28;55.30;;;49.57;;
22425;SDS011;11380;50.822;15.790;2022-12-20T09:21:37;49.07;;;44.37;;
22425;SDS011;11380;50.822;15.790;2022-12-20T09:26:43;47.97;;;43.83;;
22425;SDS011;11380;50.822;15.790;2022-12-20T09:31:51;48.50;;;44.33;;
22425;SDS011;11380;50.822;15.790;2022-12-20T09:36:57;64.22;;;54.27;;
22425;SDS011;11380;50.822;15.790;2022-12-20T09:42:06;59.90;;;53.43;;
22425;SDS011;11380;50.822;15.790;2022-12-20T09:47:20;56.17;;;50.40;;
22425;SDS011;11380;50.822;15.790;2022-12-20T10:03:35;58.30;;;52.10;;
22425;SDS011;11380;50.822;15.790;2022-12-20T10:08:49;62.70;;;55.67;;
22425;SDS011;11380;50.822;15.790;2022-12-20T10:30:28;47.77;;;43.87;;
22425;SDS011;11380;50.822;15.790;2022-12-20T10:35:39;47.40;;;43.33;;
22425;SDS011;11380;50.822;15.790;2022-12-20T10:41:45;47.33;;;43.43;;
22425;SDS011;11380;50.822;15.790;2022-12-20T10:46:08;48.27;;;44.17;;
22425;SDS011;11380;50.822;15.790;2022-12-20T10:51:18;56.53;;;50.70;;
22425;SDS011;11380;50.822;15.790;2022-12-20T11:01:42;56.70;;;49.20;;
22425;SDS011;11380;50.822;15.790;2022-12-20T11:06:52;56.60;;;50.57;;
22425;SDS011;11380;50.822;15.790;2022-12-20T11:12:11;58.08;;;51.75;;
22425;SDS011;11380;50.822;15.790;2022-12-20T11:17:32;50.15;;;45.67;;
22425;SDS011;11380;50.822;15.790;2022-12-20T11:34:02;46.87;;;43.07;;
22425;SDS011;11380;50.822;15.790;2022-12-20T11:39:37;46.03;;;42.20;;
22425;SDS011;11380;50.822;15.790;2022-12-20T11:45:04;45.60;;;41.90;;
22425;SDS011;11380;50.822;15.790;2022-12-20T11:50:35;47.43;;;43.23;;
22425;SDS011;11380;50.822;15.790;2022-12-20T11:55:51;48.57;;;44.27;;
22425;SDS011;11380;50.822;15.790;2022-12-20T12:01:09;45.30;;;41.53;;
22425;SDS011;11380;50.822;15.790;2022-12-20T12:11:38;45.17;;;41.68;;
22425;SDS011;11380;50.822;15.790;2022-12-20T12:17:08;44.63;;;41.13;;
22425;SDS011;11380;50.822;15.790;2022-12-20T12:22:26;44.98;;;41.40;;
22425;SDS011;11380;50.822;15.790;2022-12-20T12:27:34;45.60;;;41.90;;
22425;SDS011;11380;50.822;15.790;2022-12-20T12:32:46;44.88;;;41.37;;
22425;SDS011;11380;50.822;15.790;2022-12-20T12:38:01;43.50;;;40.23;;
22425;SDS011;11380;50.822;15.790;2022-12-20T12:48:51;42.23;;;39.17;;
22425;SDS011;11380;50.822;15.790;2022-12-20T12:54:03;43.47;;;40.07;;
22425;SDS011;11380;50.822;15.790;2022-12-20T13:04:57;42.87;;;39.73;;
22425;SDS011;11380;50.822;15.790;2022-12-20T13:21:15;45.13;;;41.57;;
22425;SDS011;11380;50.822;15.790;2022-12-20T13:31:48;43.50;;;40.13;;
22425;SDS011;11380;50.822;15.790;2022-12-20T13:36:59;45.70;;;41.97;;
22425;SDS011;11380;50.822;15.790;2022-12-20T13:42:18;44.37;;;40.87;;
22425;SDS011;11380;50.822;15.790;2022-12-20T13:47:43;46.00;;;42.23;;
22425;SDS011;11380;50.822;15.790;2022-12-20T13:52:56;45.77;;;41.67;;
22425;SDS011;11380;50.822;15.790;2022-12-20T13:58:04;46.90;;;42.90;;
22425;SDS011;11380;50.822;15.790;2022-12-20T14:03:24;74.50;;;59.03;;
22425;SDS011;11380;50.822;15.790;2022-12-20T14:08:34;67.67;;;54.13;;
22425;SDS011;11380;50.822;15.790;2022-12-20T14:13:55;64.23;;;54.50;;
22425;SDS011;11380;50.822;15.790;2022-12-20T14:19:06;51.57;;;46.50;;
22425;SDS011;11380;50.822;15.790;2022-12-20T14:24:19;84.23;;;59.97;;
22425;SDS011;11380;50.822;15.790;2022-12-20T14:29:28;59.67;;;50.97;;
22425;SDS011;11380;50.822;15.790;2022-12-20T14:34:35;93.13;;;65.67;;
22425;SDS011;11380;50.822;15.790;2022-12-20T14:45:23;46.80;;;42.80;;
22425;SDS011;11380;50.822;15.790;2022-12-20T14:50:33;50.25;;;45.58;;
22425;SDS011;11380;50.822;15.790;2022-12-20T14:55:44;80.63;;;59.47;;
22425;SDS011;11380;50.822;15.790;2022-12-20T15:00:56;52.78;;;47.53;;
22425;SDS011;11380;50.822;15.790;2022-12-20T15:06:06;53.68;;;48.30;;
22425;SDS011;11380;50.822;15.790;2022-12-20T15:11:22;57.23;;;50.80;;
22425;SDS011;11380;50.822;15.790;2022-12-20T15:16:27;93.70;;;66.13;;
22425;SDS011;11380;50.822;15.790;2022-12-20T15:21:35;87.97;;;62.93;;
22425;SDS011;11380;50.822;15.790;2022-12-20T15:26:48;74.43;;;57.30;;
22425;SDS011;11380;50.822;15.790;2022-12-20T15:32:02;73.13;;;56.70;;
22425;SDS011;11380;50.822;15.790;2022-12-20T15:37:21;70.78;;;53.55;;
22425;SDS011;11380;50.822;15.790;2022-12-20T15:42:28;65.00;;;53.28;;
22425;SDS011;11380;50.822;15.790;2022-12-20T15:47:35;60.40;;;53.17;;
22425;SDS011;11380;50.822;15.790;2022-12-20T15:52:41;64.33;;;51.27;;
22425;SDS011;11380;50.822;15.790;2022-12-20T15:57:48;58.70;;;51.60;;
22425;SDS011;11380;50.822;15.790;2022-12-20T16:02:55;56.73;;;50.87;;
22425;SDS011;11380;50.822;15.790;2022-12-20T16:08:05;63.02;;;52.20;;
22425;SDS011;11380;50.822;15.790;2022-12-20T16:13:15;64.00;;;52.02;;
22425;SDS011;11380;50.822;15.790;2022-12-20T16:18:27;119.97;;;70.10;;
22425;SDS011;11380;50.822;15.790;2022-12-20T16:23:35;119.40;;;67.97;;
22425;SDS011;11380;50.822;15.790;2022-12-20T16:28:42;80.05;;;56.95;;
22425;SDS011;11380;50.822;15.790;2022-12-20T16:33:51;68.00;;;53.63;;
22425;SDS011;11380;50.822;15.790;2022-12-20T16:38:59;79.50;;;56.30;;
22425;SDS011;11380;50.822;15.790;2022-12-20T16:44:08;56.88;;;50.73;;
22425;SDS011;11380;50.822;15.790;2022-12-20T16:49:16;69.23;;;53.40;;
22425;SDS011;11380;50.822;15.790;2022-12-20T16:54:23;72.53;;;53.10;;
22425;SDS011;11380;50.822;15.790;2022-12-20T16:59:30;54.20;;;47.87;;
22425;SDS011;11380;50.822;15.790;2022-12-20T17:04:36;67.22;;;52.48;;
22425;SDS011;11380;50.822;15.790;2022-12-20T17:09:46;59.93;;;52.63;;
22425;SDS011;11380;50.822;15.790;2022-12-20T17:14:53;87.77;;;60.83;;
22425;SDS011;11380;50.822;15.790;2022-12-20T17:25:08;132.47;;;71.43;;
22425;SDS011;11380;50.822;15.790;2022-12-20T17:30:20;110.07;;;67.90;;
22425;SDS011;11380;50.822;15.790;2022-12-20T17:35:30;77.80;;;57.47;;
22425;SDS011;11380;50.822;15.790;2022-12-20T17:40:37;75.83;;;58.10;;
22425;SDS011;11380;50.822;15.790;2022-12-20T17:45:44;93.80;;;60.70;;
22425;SDS011;11380;50.822;15.790;2022-12-20T17:50:51;101.65;;;65.67;;
22425;SDS011;11380;50.822;15.790;2022-12-20T17:55:56;64.80;;;53.37;;
22425;SDS011;11380;50.822;15.790;2022-12-20T18:01:03;44.33;;;40.43;;
22425;SDS011;11380;50.822;15.790;2022-12-20T18:06:10;41.40;;;38.30;;
22425;SDS011;11380;50.822;15.790;2022-12-20T18:11:18;40.58;;;37.90;;
22425;SDS011;11380;50.822;15.790;2022-12-20T18:16:27;41.43;;;38.53;;
22425;SDS011;11380;50.822;15.790;2022-12-20T18:21:37;43.63;;;40.45;;
22425;SDS011;11380;50.822;15.790;2022-12-20T18:26:44;41.60;;;38.55;;
22425;SDS011;11380;50.822;15.790;2022-12-20T18:36:57;80.17;;;61.20;;
22425;SDS011;11380;50.822;15.790;2022-12-20T18:42:06;88.60;;;63.70;;
22425;SDS011;11380;50.822;15.790;2022-12-20T18:47:12;74.94;;;58.66;;
22425;SDS011;11380;50.822;15.790;2022-12-20T18:52:19;76.33;;;59.85;;
22425;SDS011;11380;50.822;15.790;2022-12-20T18:57:25;79.87;;;61.33;;
22425;SDS011;11380;50.822;15.790;2022-12-20T19:07:38;56.27;;;50.00;;
22425;SDS011;11380;50.822;15.790;2022-12-20T19:12:46;41.70;;;38.50;;
22425;SDS011;11380;50.822;15.790;2022-12-20T19:17:53;42.20;;;39.17;;
22425;SDS011;11380;50.822;15.790;2022-12-20T19:22:59;44.25;;;40.95;;
22425;SDS011;11380;50.822;15.790;2022-12-20T19:28:08;70.78;;;57.35;;
22425;SDS011;11380;50.822;15.790;2022-12-20T19:33:15;88.27;;;63.47;;
22425;SDS011;11380;50.822;15.790;2022-12-20T19:38:23;107.87;;;70.27;;
22425;SDS011;11380;50.822;15.790;2022-12-20T19:43:30;121.53;;;75.57;;
22425;SDS011;11380;50.822;15.790;2022-12-20T19:48:37;55.00;;;49.08;;
22425;SDS011;11380;50.822;15.790;2022-12-20T19:53:45;95.20;;;66.37;;
22425;SDS011;11380;50.822;15.790;2022-12-20T19:58:56;100.73;;;68.67;;
22425;SDS011;11380;50.822;15.790;2022-12-20T20:04:03;55.90;;;50.00;;
22425;SDS011;11380;50.822;15.790;2022-12-20T20:09:11;56.70;;;50.53;;
22425;SDS011;11380;50.822;15.790;2022-12-20T20:14:19;74.03;;;56.87;;
22425;SDS011;11380;50.822;15.790;2022-12-20T20:19:26;62.20;;;50.88;;
22425;SDS011;11380;50.822;15.790;2022-12-20T20:24:33;98.43;;;64.30;;
22425;SDS011;11380;50.822;15.790;2022-12-20T20:29:40;105.03;;;68.50;;
22425;SDS011;11380;50.822;15.790;2022-12-20T20:34:46;99.27;;;65.23;;
22425;SDS011;11380;50.822;15.790;2022-12-20T20:39:53;91.87;;;62.80;;
22425;SDS011;11380;50.822;15.790;2022-12-20T20:45:00;95.30;;;65.47;;
22425;SDS011;11380;50.822;15.790;2022-12-20T20:50:08;77.85;;;59.53;;
22425;SDS011;11380;50.822;15.790;2022-12-20T20:55:15;67.53;;;55.33;;
22425;SDS011;11380;50.822;15.790;2022-12-20T21:00:21;67.87;;;55.53;;
22425;SDS011;11380;50.822;15.790;2022-12-20T21:05:28;76.70;;;55.80;;
22425;SDS011;11380;50.822;15.790;2022-12-20T21:10:36;74.63;;;57.80;;
22425;SDS011;11380;50.822;15.790;2022-12-20T21:15:44;62.73;;;51.87;;
22425;SDS011;11380;50.822;15.790;2022-12-20T21:20:51;52.23;;;44.53;;
22425;SDS011;11380;50.822;15.790;2022-12-20T21:25:57;39.70;;;36.88;;
22425;SDS011;11380;50.822;15.790;2022-12-20T21:31:04;44.13;;;40.13;;
22425;SDS011;11380;50.822;15.790;2022-12-20T21:36:15;43.70;;;40.33;;
22425;SDS011;11380;50.822;15.790;2022-12-20T21:41:24;39.83;;;37.20;;
22425;SDS011;11380;50.822;15.790;2022-12-20T21:46:33;43.63;;;40.13;;
22425;SDS011;11380;50.822;15.790;2022-12-20T21:51:40;45.20;;;41.43;;
22425;SDS011;11380;50.822;15.790;2022-12-20T21:56:48;51.90;;;46.37;;
22425;SDS011;11380;50.822;15.790;2022-12-20T22:01:55;78.13;;;57.57;;
22425;SDS011;11380;50.822;15.790;2022-12-20T22:07:02;75.85;;;58.78;;
22425;SDS011;11380;50.822;15.790;2022-12-20T22:12:09;72.37;;;55.20;;
22425;SDS011;11380;50.822;15.790;2022-12-20T22:17:16;84.07;;;58.92;;
22425;SDS011;11380;50.822;15.790;2022-12-20T22:22:23;64.05;;;51.10;;
22425;SDS011;11380;50.822;15.790;2022-12-20T22:27:29;48.00;;;43.53;;
22425;SDS011;11380;50.822;15.790;2022-12-20T22:32:36;45.57;;;41.43;;
22425;SDS011;11380;50.822;15.790;2022-12-20T22:37:42;42.67;;;39.45;;
22425;SDS011;11380;50.822;15.790;2022-12-20T22:42:49;42.90;;;39.40;;
22425;SDS011;11380;50.822;15.790;2022-12-20T22:47:55;45.28;;;41.23;;
22425;SDS011;11380;50.822;15.790;2022-12-20T22:53:02;40.87;;;38.00;;
22425;SDS011;11380;50.822;15.790;2022-12-20T22:58:08;45.80;;;41.73;;
22425;SDS011;11380;50.822;15.790;2022-12-20T23:08:23;41.63;;;38.47;;
22425;SDS011;11380;50.822;15.790;2022-12-20T23:13:32;40.97;;;37.97;;
22425;SDS011;11380;50.822;15.790;2022-12-20T23:18:58;41.23;;;38.23;;
22425;SDS011;11380;50.822;15.790;2022-12-20T23:24:05;43.67;;;40.17;;
22425;SDS011;11380;50.822;15.790;2022-12-20T23:29:12;54.27;;;48.52;;
22425;SDS011;11380;50.822;15.790;2022-12-20T23:34:20;57.23;;;49.90;;
22425;SDS011;11380;50.822;15.790;2022-12-20T23:39:27;52.57;;;46.63;;
22425;SDS011;11380;50.822;15.790;2022-12-20T23:44:33;59.35;;;50.25;;
22425;SDS011;11380;50.822;15.790;2022-12-20T23:49:40;45.88;;;41.58;;
22425;SDS011;11380;50.822;15.790;2022-12-20T23:54:47;50.43;;;45.27;;
22425;SDS011;11380;50.822;15.790;2022-12-20T23:59:54;40.58;;;37.65;;
